sensor_id;sensor_type;location;lat;lon;timestamp;pressure;altitude;pressure_sealevel;temperature;humidity
56928;BME280;60850;52.502;13.426;2023-12-29T00:00:57;100514.69;;;7.22;100.00
56928;BME280;60850;52.502;13.426;2023-12-29T00:03:38;100516.50;;;7.18;100.00
56928;BME280;60850;52.502;13.426;2023-12-29T00:06:06;100515.63;;;7.18;100.00
56928;BME280;60850;52.502;13.426;2023-12-29T00:08:33;100518.25;;;7.19;100.00
56928;BME280;60850;52.502;13.426;2023-12-29T00:11:00;100512.94;;;7.21;100.00
56928;BME280;60850;52.502;13.426;2023-12-29T00:13:26;100516.44;;;7.23;100.00
56928;BME280;60850;52.502;13.426;2023-12-29T00:15:55;100522.53;;;7.28;100.00
56928;BME280;60850;52.502;13.426;2023-12-29T00:18:23;100507.53;;;7.27;100.00
56928;BME280;60850;52.502;13.426;2023-12-29T00:20:50;100503.09;;;7.27;100.00
56928;BME280;60850;52.502;13.426;2023-12-29T00:23:17;100502.16;;;7.30;100.00
56928;BME280;60850;52.502;13.426;2023-12-29T00:25:44;100493.41;;;7.25;100.00
56928;BME280;60850;52.502;13.426;2023-12-29T00:28:11;100490.69;;;7.29;100.00
56928;BME280;60850;52.502;13.426;2023-12-29T00:30:38;100495.09;;;7.30;100.00
56928;BME280;60850;52.502;13.426;2023-12-29T00:33:07;100488.00;;;7.31;100.00
56928;BME280;60850;52.502;13.426;2023-12-29T00:35:36;100495.09;;;7.30;100.00
56928;BME280;60850;52.502;13.426;2023-12-29T00:38:03;100481.84;;;7.29;100.00
56928;BME280;60850;52.502;13.426;2023-12-29T00:40:30;100487.16;;;7.29;100.00
56928;BME280;60850;52.502;13.426;2023-12-29T00:42:57;100489.81;;;7.29;100.00
56928;BME280;60850;52.502;13.426;2023-12-29T00:45:24;100476.53;;;7.30;100.00
56928;BME280;60850;52.502;13.426;2023-12-29T00:47:51;100477.28;;;7.37;100.00
56928;BME280;60850;52.502;13.426;2023-12-29T00:50:19;100477.28;;;7.37;100.00
56928;BME280;60850;52.502;13.426;2023-12-29T00:52:46;100475.53;;;7.36;100.00
56928;BME280;60850;52.502;13.426;2023-12-29T00:55:13;100467.66;;;7.31;100.00
56928;BME280;60850;52.502;13.426;2023-12-29T00:57:40;100467.66;;;7.31;100.00
56928;BME280;60850;52.502;13.426;2023-12-29T01:00:10;100472.97;;;7.31;100.00
56928;BME280;60850;52.502;13.426;2023-12-29T01:02:38;100466.88;;;7.25;100.00
56928;BME280;60850;52.502;13.426;2023-12-29T01:05:06;100460.66;;;7.29;100.00
56928;BME280;60850;52.502;13.426;2023-12-29T01:07:34;100466.84;;;7.28;100.00
56928;BME280;60850;52.502;13.426;2023-12-29T01:10:02;100462.38;;;7.30;100.00
56928;BME280;60850;52.502;13.426;2023-12-29T01:12:29;100457.16;;;7.27;100.00
56928;BME280;60850;52.502;13.426;2023-12-29T01:14:56;100449.16;;;7.28;100.00
56928;BME280;60850;52.502;13.426;2023-12-29T01:17:23;100442.13;;;7.26;100.00
56928;BME280;60850;52.502;13.426;2023-12-29T01:19:49;100450.06;;;7.26;100.00
56928;BME280;60850;52.502;13.426;2023-12-29T01:22:16;100440.38;;;7.25;100.00
56928;BME280;60850;52.502;13.426;2023-12-29T01:24:45;100434.19;;;7.24;100.00
56928;BME280;60850;52.502;13.426;2023-12-29T01:27:12;100433.31;;;7.24;100.00
56928;BME280;60850;52.502;13.426;2023-12-29T01:29:39;100435.06;;;7.25;100.00
56928;BME280;60850;52.502;13.426;2023-12-29T01:32:06;100444.78;;;7.27;100.00
56928;BME280;60850;52.502;13.426;2023-12-29T01:34:33;100431.47;;;7.29;100.00
56928;BME280;60850;52.502;13.426;2023-12-29T01:37:02;100421.72;;;7.31;100.00
56928;BME280;60850;52.502;13.426;2023-12-29T01:39:30;100425.16;;;7.36;100.00
56928;BME280;60850;52.502;13.426;2023-12-29T01:41:58;100426.06;;;7.35;100.00
56928;BME280;60850;52.502;13.426;2023-12-29T01:44:25;100426.97;;;7.32;100.00
56928;BME280;60850;52.502;13.426;2023-12-29T01:46:54;100410.19;;;7.33;100.00
56928;BME280;60850;52.502;13.426;2023-12-29T01:49:22;100416.38;;;7.34;100.00
56928;BME280;60850;52.502;13.426;2023-12-29T01:51:50;100425.22;;;7.31;100.00
56928;BME280;60850;52.502;13.426;2023-12-29T01:54:21;100410.25;;;7.29;100.00
56928;BME280;60850;52.502;13.426;2023-12-29T01:56:50;100406.72;;;7.30;100.00
56928;BME280;60850;52.502;13.426;2023-12-29T01:59:23;100401.44;;;7.28;100.00
56928;BME280;60850;52.502;13.426;2023-12-29T02:01:50;100393.59;;;7.22;100.00
56928;BME280;60850;52.502;13.426;2023-12-29T02:04:18;100393.56;;;7.24;100.00
56928;BME280;60850;52.502;13.426;2023-12-29T02:06:45;100393.56;;;7.24;100.00
56928;BME280;60850;52.502;13.426;2023-12-29T02:09:13;100390.78;;;7.30;100.00
56928;BME280;60850;52.502;13.426;2023-12-29T02:11:41;100388.16;;;7.30;100.00
56928;BME280;60850;52.502;13.426;2023-12-29T02:14:09;100380.19;;;7.30;100.00
56928;BME280;60850;52.502;13.426;2023-12-29T02:16:44;100384.53;;;7.34;100.00
56928;BME280;60850;52.502;13.426;2023-12-29T02:19:25;100390.66;;;7.37;100.00
56928;BME280;60850;52.502;13.426;2023-12-29T02:21:57;100380.94;;;7.36;100.00
56928;BME280;60850;52.502;13.426;2023-12-29T02:24:24;100385.41;;;7.33;100.00
56928;BME280;60850;52.502;13.426;2023-12-29T02:26:57;100379.13;;;7.38;100.00
56928;BME280;60850;52.502;13.426;2023-12-29T02:29:30;100364.13;;;7.37;100.00
56928;BME280;60850;52.502;13.426;2023-12-29T02:31:59;100367.75;;;7.33;100.00
56928;BME280;60850;52.502;13.426;2023-12-29T02:34:27;100358.94;;;7.31;100.00
56928;BME280;60850;52.502;13.426;2023-12-29T02:36:56;100361.56;;;7.33;100.00
56928;BME280;60850;52.502;13.426;2023-12-29T02:39:24;100361.56;;;7.34;100.00
56928;BME280;60850;52.502;13.426;2023-12-29T02:41:52;100355.31;;;7.37;100.00
56928;BME280;60850;52.502;13.426;2023-12-29T02:44:19;100346.59;;;7.30;100.00
56928;BME280;60850;52.502;13.426;2023-12-29T02:46:46;100345.72;;;7.30;100.00
56928;BME280;60850;52.502;13.426;2023-12-29T02:49:13;100351.06;;;7.28;100.00
56928;BME280;60850;52.502;13.426;2023-12-29T02:51:40;100342.28;;;7.25;100.00
56928;BME280;60850;52.502;13.426;2023-12-29T02:54:07;100351.03;;;7.30;100.00
56928;BME280;60850;52.502;13.426;2023-12-29T02:56:34;100334.16;;;7.32;100.00
56928;BME280;60850;52.502;13.426;2023-12-29T02:59:02;100330.53;;;7.38;100.00
56928;BME280;60850;52.502;13.426;2023-12-29T03:01:29;100327.03;;;7.36;100.00
56928;BME280;60850;52.502;13.426;2023-12-29T03:03:56;100334.91;;;7.39;100.00
56928;BME280;60850;52.502;13.426;2023-12-29T03:06:23;100333.28;;;7.33;100.00
56928;BME280;60850;52.502;13.426;2023-12-29T03:08:50;100331.44;;;7.37;100.00
56928;BME280;60850;52.502;13.426;2023-12-29T03:11:18;100317.22;;;7.41;100.00
56928;BME280;60850;52.502;13.426;2023-12-29T03:13:45;100320.66;;;7.44;100.00
56928;BME280;60850;52.502;13.426;2023-12-29T03:16:13;100321.50;;;7.48;100.00
56928;BME280;60850;52.502;13.426;2023-12-29T03:18:40;100322.25;;;7.53;100.00
56928;BME280;60850;52.502;13.426;2023-12-29T03:21:07;100317.81;;;7.55;100.00
56928;BME280;60850;52.502;13.426;2023-12-29T03:23:34;100306.34;;;7.53;100.00
56928;BME280;60850;52.502;13.426;2023-12-29T03:26:01;100319.69;;;7.50;100.00
56928;BME280;60850;52.502;13.426;2023-12-29T03:28:29;100315.25;;;7.51;100.00
56928;BME280;60850;52.502;13.426;2023-12-29T03:30:56;100317.09;;;7.46;100.00
56928;BME280;60850;52.502;13.426;2023-12-29T03:33:24;100320.72;;;7.43;100.00
56928;BME280;60850;52.502;13.426;2023-12-29T03:35:51;100310.84;;;7.50;100.00
56928;BME280;60850;52.502;13.426;2023-12-29T03:38:18;100305.47;;;7.54;100.00
56928;BME280;60850;52.502;13.426;2023-12-29T03:40:45;100308.88;;;7.59;100.00
56928;BME280;60850;52.502;13.426;2023-12-29T03:43:12;100304.38;;;7.63;100.00
56928;BME280;60850;52.502;13.426;2023-12-29T03:45:39;100292.78;;;7.68;100.00
56928;BME280;60850;52.502;13.426;2023-12-29T03:48:06;100294.50;;;7.69;100.00
56928;BME280;60850;52.502;13.426;2023-12-29T03:50:35;100289.22;;;7.69;100.00
56928;BME280;60850;52.502;13.426;2023-12-29T03:53:02;100292.69;;;7.71;100.00
56928;BME280;60850;52.502;13.426;2023-12-29T03:55:29;100288.16;;;7.77;100.00
56928;BME280;60850;52.502;13.426;2023-12-29T03:57:56;100283.78;;;7.76;100.00
56928;BME280;60850;52.502;13.426;2023-12-29T04:00:24;100292.59;;;7.76;100.00
56928;BME280;60850;52.502;13.426;2023-12-29T04:02:51;100290.72;;;7.80;100.00
56928;BME280;60850;52.502;13.426;2023-12-29T04:05:19;100291.44;;;7.88;100.00
56928;BME280;60850;52.502;13.426;2023-12-29T04:07:48;100279.84;;;7.92;100.00
56928;BME280;60850;52.502;13.426;2023-12-29T04:10:14;100268.41;;;7.88;100.00
56928;BME280;60850;52.502;13.426;2023-12-29T04:12:41;100270.09;;;7.92;100.00
56928;BME280;60850;52.502;13.426;2023-12-29T04:15:09;100268.41;;;7.90;100.00
56928;BME280;60850;52.502;13.426;2023-12-29T04:17:36;100256.06;;;7.87;100.00
56928;BME280;60850;52.502;13.426;2023-12-29T04:20:03;100264.16;;;7.81;100.00
56928;BME280;60850;52.502;13.426;2023-12-29T04:22:30;100258.91;;;7.80;100.00
56928;BME280;60850;52.502;13.426;2023-12-29T04:24:58;100257.16;;;7.79;100.00
56928;BME280;60850;52.502;13.426;2023-12-29T04:27:25;100246.53;;;7.79;100.00
56928;BME280;60850;52.502;13.426;2023-12-29T04:29:52;100241.22;;;7.79;100.00
56928;BME280;60850;52.502;13.426;2023-12-29T04:32:19;100240.31;;;7.80;100.00
56928;BME280;60850;52.502;13.426;2023-12-29T04:34:47;100237.63;;;7.81;100.00
56928;BME280;60850;52.502;13.426;2023-12-29T04:37:14;100242.88;;;7.84;100.00
56928;BME280;60850;52.502;13.426;2023-12-29T04:39:41;100234.03;;;7.84;100.00
56928;BME280;60850;52.502;13.426;2023-12-29T04:42:09;100239.22;;;7.90;100.00
56928;BME280;60850;52.502;13.426;2023-12-29T04:44:37;100232.16;;;7.87;100.00
56928;BME280;60850;52.502;13.426;2023-12-29T04:47:04;100236.75;;;7.81;100.00
56928;BME280;60850;52.502;13.426;2023-12-29T04:49:31;100234.22;;;7.75;100.00
56928;BME280;60850;52.502;13.426;2023-12-29T04:51:58;100225.44;;;7.72;100.00
56928;BME280;60850;52.502;13.426;2023-12-29T04:54:25;100229.97;;;7.67;100.00
56928;BME280;60850;52.502;13.426;2023-12-29T04:56:52;100214.09;;;7.66;100.00
56928;BME280;60850;52.502;13.426;2023-12-29T04:59:20;100218.47;;;7.68;100.00
56928;BME280;60850;52.502;13.426;2023-12-29T05:01:47;100214.06;;;7.69;100.00
56928;BME280;60850;52.502;13.426;2023-12-29T05:04:14;100206.03;;;7.70;100.00
56928;BME280;60850;52.502;13.426;2023-12-29T05:06:42;100208.75;;;7.69;100.00
56928;BME280;60850;52.502;13.426;2023-12-29T05:09:09;100216.53;;;7.77;100.00
56928;BME280;60850;52.502;13.426;2023-12-29T05:11:36;100208.38;;;7.84;100.00
56928;BME280;60850;52.502;13.426;2023-12-29T05:14:03;100213.69;;;7.84;100.00
56928;BME280;60850;52.502;13.426;2023-12-29T05:16:31;100213.56;;;7.89;100.00
56928;BME280;60850;52.502;13.426;2023-12-29T05:18:58;100214.50;;;7.86;100.00
56928;BME280;60850;52.502;13.426;2023-12-29T05:21:25;100217.31;;;7.80;100.00
56928;BME280;60850;52.502;13.426;2023-12-29T05:23:52;100217.25;;;7.82;100.00
56928;BME280;60850;52.502;13.426;2023-12-29T05:26:19;100219.13;;;7.78;100.00
56928;BME280;60850;52.502;13.426;2023-12-29T05:28:46;100226.22;;;7.78;100.00
56928;BME280;60850;52.502;13.426;2023-12-29T05:31:13;100216.41;;;7.81;100.00
56928;BME280;60850;52.502;13.426;2023-12-29T05:33:41;100220.78;;;7.84;100.00
56928;BME280;60850;52.502;13.426;2023-12-29T05:36:09;100207.41;;;7.87;100.00
56928;BME280;60850;52.502;13.426;2023-12-29T05:38:37;100212.59;;;7.93;100.00
56928;BME280;60850;52.502;13.426;2023-12-29T05:41:04;100216.88;;;7.98;100.00
56928;BME280;60850;52.502;13.426;2023-12-29T05:43:32;100207.84;;;8.06;100.00
56928;BME280;60850;52.502;13.426;2023-12-29T05:46:00;100211.28;;;8.09;100.00
56928;BME280;60850;52.502;13.426;2023-12-29T05:48:27;100210.31;;;8.13;100.00
56928;BME280;60850;52.502;13.426;2023-12-29T05:50:55;100208.47;;;8.15;100.00
56928;BME280;60850;52.502;13.426;2023-12-29T05:53:22;100209.31;;;8.17;100.00
56928;BME280;60850;52.502;13.426;2023-12-29T05:55:52;100214.56;;;8.20;100.00
56928;BME280;60850;52.502;13.426;2023-12-29T05:58:19;100215.44;;;8.21;100.00
56928;BME280;60850;52.502;13.426;2023-12-29T06:00:46;100209.19;;;8.22;100.00
56928;BME280;60850;52.502;13.426;2023-12-29T06:03:13;100200.41;;;8.20;100.00
56928;BME280;60850;52.502;13.426;2023-12-29T06:05:40;100197.81;;;8.17;100.00
56928;BME280;60850;52.502;13.426;2023-12-29T06:08:08;100193.38;;;8.17;100.00
56928;BME280;60850;52.502;13.426;2023-12-29T06:10:35;100193.38;;;8.17;100.00
56928;BME280;60850;52.502;13.426;2023-12-29T06:13:03;100185.31;;;8.22;100.00
56928;BME280;60850;52.502;13.426;2023-12-29T06:15:30;100187.09;;;8.21;100.00
56928;BME280;60850;52.502;13.426;2023-12-29T06:17:57;100178.09;;;8.27;100.00
56928;BME280;60850;52.502;13.426;2023-12-29T06:20:24;100176.38;;;8.26;100.00
56928;BME280;60850;52.502;13.426;2023-12-29T06:22:51;100186.97;;;8.26;100.00
56928;BME280;60850;52.502;13.426;2023-12-29T06:25:20;100182.38;;;8.33;100.00
56928;BME280;60850;52.502;13.426;2023-12-29T06:27:46;100183.31;;;8.32;100.00
56928;BME280;60850;52.502;13.426;2023-12-29T06:30:14;100178.81;;;8.34;100.00
56928;BME280;60850;52.502;13.426;2023-12-29T06:32:41;100185.00;;;8.34;100.00
56928;BME280;60850;52.502;13.426;2023-12-29T06:35:08;100196.50;;;8.35;100.00
56928;BME280;60850;52.502;13.426;2023-12-29T06:37:36;100220.31;;;8.39;100.00
56928;BME280;60850;52.502;13.426;2023-12-29T06:40:04;100226.47;;;8.41;100.00
56928;BME280;60850;52.502;13.426;2023-12-29T06:42:33;100245.91;;;8.42;100.00
56928;BME280;60850;52.502;13.426;2023-12-29T06:45:00;100235.28;;;8.42;100.00
56928;BME280;60850;52.502;13.426;2023-12-29T06:47:27;100220.28;;;8.41;100.00
56928;BME280;60850;52.502;13.426;2023-12-29T06:49:55;100217.47;;;8.47;100.00
56928;BME280;60850;52.502;13.426;2023-12-29T06:52:22;100220.81;;;8.53;100.00
56928;BME280;60850;52.502;13.426;2023-12-29T06:54:48;100217.31;;;8.53;100.00
56928;BME280;60850;52.502;13.426;2023-12-29T06:57:15;100216.38;;;8.54;100.00
56928;BME280;60850;52.502;13.426;2023-12-29T06:59:44;100204.88;;;8.53;100.00
56928;BME280;60850;52.502;13.426;2023-12-29T07:02:11;100203.13;;;8.52;100.00
56928;BME280;60850;52.502;13.426;2023-12-29T07:04:41;100206.69;;;8.53;100.00
56928;BME280;60850;52.502;13.426;2023-12-29T07:07:08;100210.19;;;8.53;100.00
56928;BME280;60850;52.502;13.426;2023-12-29T07:09:37;100208.38;;;8.56;100.00
56928;BME280;60850;52.502;13.426;2023-12-29T07:12:04;100219.59;;;8.65;100.00
56928;BME280;60850;52.502;13.426;2023-12-29T07:14:31;100223.13;;;8.66;100.00
56928;BME280;60850;52.502;13.426;2023-12-29T07:17:00;100215.09;;;8.69;100.00
56928;BME280;60850;52.502;13.426;2023-12-29T07:19:27;100213.31;;;8.69;100.00
56928;BME280;60850;52.502;13.426;2023-12-29T07:22:02;100210.66;;;8.69;100.00
56928;BME280;60850;52.502;13.426;2023-12-29T07:24:31;100215.00;;;8.72;100.00
56928;BME280;60850;52.502;13.426;2023-12-29T07:26:58;100230.94;;;8.72;100.00
56928;BME280;60850;52.502;13.426;2023-12-29T07:29:25;100228.16;;;8.76;100.00
56928;BME280;60850;52.502;13.426;2023-12-29T07:31:52;100225.56;;;8.75;100.00
56928;BME280;60850;52.502;13.426;2023-12-29T07:34:21;100219.28;;;8.77;100.00
56928;BME280;60850;52.502;13.426;2023-12-29T07:36:47;100231.75;;;8.75;100.00
56928;BME280;60850;52.502;13.426;2023-12-29T07:39:15;100240.44;;;8.80;100.00
56928;BME280;60850;52.502;13.426;2023-12-29T07:41:41;100230.72;;;8.79;100.00
56928;BME280;60850;52.502;13.426;2023-12-29T07:44:10;100219.22;;;8.79;100.00
56928;BME280;60850;52.502;13.426;2023-12-29T07:46:37;100222.94;;;8.73;100.00
56928;BME280;60850;52.502;13.426;2023-12-29T07:49:04;100224.75;;;8.71;100.00
56928;BME280;60850;52.502;13.426;2023-12-29T07:51:32;100225.78;;;8.66;100.00
56928;BME280;60850;52.502;13.426;2023-12-29T07:54:00;100236.41;;;8.67;100.00
56928;BME280;60850;52.502;13.426;2023-12-29T07:56:27;100230.16;;;8.68;100.00
56928;BME280;60850;52.502;13.426;2023-12-29T07:58:54;100235.34;;;8.73;100.00
56928;BME280;60850;52.502;13.426;2023-12-29T08:01:20;100233.19;;;8.87;100.00
56928;BME280;60850;52.502;13.426;2023-12-29T08:03:48;100239.69;;;9.08;100.00
56928;BME280;60850;52.502;13.426;2023-12-29T08:06:14;100230.13;;;9.01;100.00
56928;BME280;60850;52.502;13.426;2023-12-29T08:08:43;100243.88;;;9.17;100.00
56928;BME280;60850;52.502;13.426;2023-12-29T08:11:13;100244.66;;;9.20;100.00
56928;BME280;60850;52.502;13.426;2023-12-29T08:13:41;100247.16;;;9.26;100.00
56928;BME280;60850;52.502;13.426;2023-12-29T08:16:08;100245.25;;;9.30;100.00
56928;BME280;60850;52.502;13.426;2023-12-29T08:18:35;100245.81;;;9.41;100.00
56928;BME280;60850;52.502;13.426;2023-12-29T08:21:01;100237.78;;;9.43;100.00
56928;BME280;60850;52.502;13.426;2023-12-29T08:23:29;100248.47;;;9.41;100.00
56928;BME280;60850;52.502;13.426;2023-12-29T08:25:57;100254.38;;;9.52;100.00
56928;BME280;60850;52.502;13.426;2023-12-29T08:28:25;100235.56;;;9.58;100.00
56928;BME280;60850;52.502;13.426;2023-12-29T08:30:52;100231.00;;;9.62;100.00
56928;BME280;60850;52.502;13.426;2023-12-29T08:33:19;100241.59;;;9.91;100.00
56928;BME280;60850;52.502;13.426;2023-12-29T08:35:46;100243.00;;;10.83;100.00
56928;BME280;60850;52.502;13.426;2023-12-29T08:38:13;100238.44;;;10.35;100.00
56928;BME280;60850;52.502;13.426;2023-12-29T08:40:41;100248.06;;;10.90;100.00
56928;BME280;60850;52.502;13.426;2023-12-29T08:43:09;100245.50;;;10.36;100.00
56928;BME280;60850;52.502;13.426;2023-12-29T08:45:36;100243.69;;;10.38;100.00
56928;BME280;60850;52.502;13.426;2023-12-29T08:48:05;100251.50;;;10.42;100.00
56928;BME280;60850;52.502;13.426;2023-12-29T08:50:31;100258.38;;;10.23;100.00
56928;BME280;60850;52.502;13.426;2023-12-29T08:52:58;100257.09;;;10.07;100.00
56928;BME280;60850;52.502;13.426;2023-12-29T08:55:25;100244.19;;;10.23;100.00
56928;BME280;60850;52.502;13.426;2023-12-29T08:57:52;100241.63;;;10.18;100.00
56928;BME280;60850;52.502;13.426;2023-12-29T09:00:21;100245.72;;;10.02;100.00
56928;BME280;60850;52.502;13.426;2023-12-29T09:02:48;100240.00;;;9.86;100.00
56928;BME280;60850;52.502;13.426;2023-12-29T09:05:15;100248.03;;;9.84;100.00
56928;BME280;60850;52.502;13.426;2023-12-29T09:07:43;100245.50;;;9.81;100.00
56928;BME280;60850;52.502;13.426;2023-12-29T09:10:09;100249.88;;;9.82;100.00
56928;BME280;60850;52.502;13.426;2023-12-29T09:12:38;100254.16;;;10.16;100.00
56928;BME280;60850;52.502;13.426;2023-12-29T09:15:06;100250.56;;;10.17;100.00
56928;BME280;60850;52.502;13.426;2023-12-29T09:17:34;100254.03;;;10.19;100.00
56928;BME280;60850;52.502;13.426;2023-12-29T09:20:03;100253.22;;;10.17;100.00
56928;BME280;60850;52.502;13.426;2023-12-29T09:22:30;100250.22;;;10.28;100.00
56928;BME280;60850;52.502;13.426;2023-12-29T09:24:57;100238.81;;;10.24;100.00
56928;BME280;60850;52.502;13.426;2023-12-29T09:27:24;100259.94;;;10.30;100.00
56928;BME280;60850;52.502;13.426;2023-12-29T09:29:50;100262.13;;;10.44;100.00
56928;BME280;60850;52.502;13.426;2023-12-29T09:32:17;100260.47;;;10.40;100.00
56928;BME280;60850;52.502;13.426;2023-12-29T09:34:46;100257.25;;;10.30;100.00
56928;BME280;60850;52.502;13.426;2023-12-29T09:37:12;100258.28;;;10.26;100.00
56928;BME280;60850;52.502;13.426;2023-12-29T09:39:39;100248.22;;;10.34;100.00
56928;BME280;60850;52.502;13.426;2023-12-29T09:42:07;100259.72;;;10.36;100.00
56928;BME280;60850;52.502;13.426;2023-12-29T09:44:35;100268.72;;;10.32;100.00
56928;BME280;60850;52.502;13.426;2023-12-29T09:47:03;100256.22;;;10.34;100.00
56928;BME280;60850;52.502;13.426;2023-12-29T09:49:36;100250.81;;;10.37;100.00
56928;BME280;60850;52.502;13.426;2023-12-29T09:52:07;100265.41;;;10.26;100.00
56928;BME280;60850;52.502;13.426;2023-12-29T09:54:34;100257.63;;;10.18;100.00
56928;BME280;60850;52.502;13.426;2023-12-29T09:57:04;100252.19;;;10.21;100.00
56928;BME280;60850;52.502;13.426;2023-12-29T09:59:32;100243.38;;;10.19;100.00
56928;BME280;60850;52.502;13.426;2023-12-29T10:02:03;100238.63;;;10.29;100.00
56928;BME280;60850;52.502;13.426;2023-12-29T10:04:31;100242.44;;;10.20;100.00
56928;BME280;60850;52.502;13.426;2023-12-29T10:07:02;100240.63;;;10.22;100.00
56928;BME280;60850;52.502;13.426;2023-12-29T10:09:34;100254.84;;;10.23;100.00
56928;BME280;60850;52.502;13.426;2023-12-29T10:12:09;100245.97;;;10.22;100.00
56928;BME280;60850;52.502;13.426;2023-12-29T10:14:42;100233.53;;;10.23;100.00
56928;BME280;60850;52.502;13.426;2023-12-29T10:17:19;100233.28;;;10.30;100.00
56928;BME280;60850;52.502;13.426;2023-12-29T10:19:58;100239.78;;;10.48;100.00
56928;BME280;60850;52.502;13.426;2023-12-29T10:22:32;100234.16;;;10.57;100.00
56928;BME280;60850;52.502;13.426;2023-12-29T10:25:03;100242.94;;;10.59;100.00
56928;BME280;60850;52.502;13.426;2023-12-29T10:27:30;100243.00;;;10.58;100.00
56928;BME280;60850;52.502;13.426;2023-12-29T10:29:58;100236.84;;;10.56;100.00
56928;BME280;60850;52.502;13.426;2023-12-29T10:32:25;100213.78;;;10.55;100.00
56928;BME280;60850;52.502;13.426;2023-12-29T10:35:07;100219.09;;;10.55;100.00
56928;BME280;60850;52.502;13.426;2023-12-29T10:37:34;100208.34;;;10.58;100.00
56928;BME280;60850;52.502;13.426;2023-12-29T10:40:04;100207.25;;;10.63;100.00
56928;BME280;60850;52.502;13.426;2023-12-29T10:42:31;100212.84;;;10.56;100.00
56928;BME280;60850;52.502;13.426;2023-12-29T10:45:05;100211.72;;;10.63;100.00
56928;BME280;60850;52.502;13.426;2023-12-29T10:47:33;100227.91;;;10.57;100.00
56928;BME280;60850;52.502;13.426;2023-12-29T10:50:01;100230.56;;;10.58;100.00
56928;BME280;60850;52.502;13.426;2023-12-29T10:52:29;100219.28;;;10.50;100.00
56928;BME280;60850;52.502;13.426;2023-12-29T10:55:06;100229.63;;;10.59;100.00
56928;BME280;60850;52.502;13.426;2023-12-29T10:57:33;100224.44;;;10.55;100.00
56928;BME280;60850;52.502;13.426;2023-12-29T11:00:00;100224.22;;;10.61;100.00
56928;BME280;60850;52.502;13.426;2023-12-29T11:02:28;100223.38;;;10.60;100.00
56928;BME280;60850;52.502;13.426;2023-12-29T11:05:02;100238.16;;;10.69;100.00
56928;BME280;60850;52.502;13.426;2023-12-29T11:07:33;100229.41;;;10.65;100.00
56928;BME280;60850;52.502;13.426;2023-12-29T11:10:02;100233.69;;;10.69;100.00
56928;BME280;60850;52.502;13.426;2023-12-29T11:12:32;100232.81;;;10.69;100.00
56928;BME280;60850;52.502;13.426;2023-12-29T11:15:01;100234.47;;;10.73;100.00
56928;BME280;60850;52.502;13.426;2023-12-29T11:17:29;100242.56;;;10.70;100.00
56928;BME280;60850;52.502;13.426;2023-12-29T11:19:58;100232.69;;;10.73;100.00
56928;BME280;60850;52.502;13.426;2023-12-29T11:22:28;100234.53;;;10.71;100.00
56928;BME280;60850;52.502;13.426;2023-12-29T11:24:55;100215.63;;;10.78;100.00
56928;BME280;60850;52.502;13.426;2023-12-29T11:27:29;100221.81;;;10.78;100.00
56928;BME280;60850;52.502;13.426;2023-12-29T11:29:58;100226.41;;;10.75;100.00
56928;BME280;60850;52.502;13.426;2023-12-29T11:32:32;100215.69;;;10.76;100.00
56928;BME280;60850;52.502;13.426;2023-12-29T11:35:12;100229.03;;;10.76;100.00
56928;BME280;60850;52.502;13.426;2023-12-29T11:38:08;100212.94;;;10.79;100.00
56928;BME280;60850;52.502;13.426;2023-12-29T11:40:43;100215.69;;;10.76;100.00
56928;BME280;60850;52.502;13.426;2023-12-29T11:43:14;100207.91;;;10.70;100.00
56928;BME280;60850;52.502;13.426;2023-12-29T11:45:43;100215.03;;;10.69;100.00
56928;BME280;60850;52.502;13.426;2023-12-29T11:48:11;100209.75;;;10.68;100.00
56928;BME280;60850;52.502;13.426;2023-12-29T11:50:39;100193.44;;;10.77;100.00
56928;BME280;60850;52.502;13.426;2023-12-29T11:53:07;100192.50;;;10.78;100.00
56928;BME280;60850;52.502;13.426;2023-12-29T11:55:35;100189.09;;;10.75;100.00
56928;BME280;60850;52.502;13.426;2023-12-29T11:58:02;100191.81;;;10.73;100.00
56928;BME280;60850;52.502;13.426;2023-12-29T12:00:42;100197.88;;;10.77;100.00
56928;BME280;60850;52.502;13.426;2023-12-29T12:03:17;100192.03;;;10.67;100.00
56928;BME280;60850;52.502;13.426;2023-12-29T12:05:46;100188.66;;;10.62;100.00
56928;BME280;60850;52.502;13.426;2023-12-29T12:08:31;100189.38;;;10.67;100.00
56928;BME280;60850;52.502;13.426;2023-12-29T12:11:41;100183.44;;;10.59;100.00
56928;BME280;60850;52.502;13.426;2023-12-29T12:14:09;100201.22;;;10.58;100.00
56928;BME280;60850;52.502;13.426;2023-12-29T12:16:50;100204.03;;;10.54;100.00
56928;BME280;60850;52.502;13.426;2023-12-29T12:19:19;100206.84;;;10.51;100.00
56928;BME280;60850;52.502;13.426;2023-12-29T12:21:47;100190.00;;;10.49;100.00
56928;BME280;60850;52.502;13.426;2023-12-29T12:24:18;100186.66;;;10.43;100.00
56928;BME280;60850;52.502;13.426;2023-12-29T12:26:45;100203.59;;;10.41;100.00
56928;BME280;60850;52.502;13.426;2023-12-29T12:29:13;100205.50;;;10.37;100.00
56928;BME280;60850;52.502;13.426;2023-12-29T12:31:53;100190.47;;;10.35;100.00
56928;BME280;60850;52.502;13.426;2023-12-29T12:34:20;100188.13;;;10.26;100.00
56928;BME280;60850;52.502;13.426;2023-12-29T12:36:50;100186.41;;;10.25;100.00
56928;BME280;60850;52.502;13.426;2023-12-29T12:39:17;100187.13;;;10.30;100.00
56928;BME280;60850;52.502;13.426;2023-12-29T12:41:44;100190.09;;;10.19;100.00
56928;BME280;60850;52.502;13.426;2023-12-29T12:44:13;100190.91;;;10.21;100.00